createdAt,value
2019-05-10T00:00:33.380Z,86.78
2019-05-10T00:03:21.426Z,86.97
2019-05-10T00:06:08.747Z,86.97
2019-05-10T00:08:46.787Z,86.53
2019-05-10T00:11:39.808Z,86.53
2019-05-10T00:14:28.864Z,86.10
2019-05-10T00:17:23.350Z,85.79
2019-05-10T00:19:53.159Z,85.93
2019-05-10T00:22:23.553Z,85.22
2019-05-10T00:25:02.838Z,84.54
2019-05-10T00:27:24.913Z,84.92
2019-05-10T00:29:55.043Z,84.10
2019-05-10T00:32:24.822Z,84.10
2019-05-10T00:34:54.485Z,83.65
2019-05-10T00:37:24.429Z,84.06
2019-05-10T00:39:54.032Z,83.96
2019-05-10T00:42:24.031Z,83.96
2019-05-10T00:44:54.238Z,84.19
2019-05-10T00:47:24.061Z,84.19
2019-05-10T00:49:53.652Z,84.71
2019-05-10T00:52:23.451Z,84.73
2019-05-10T00:54:52.979Z,84.54
2019-05-10T00:57:22.797Z,84.69
2019-05-10T00:59:52.546Z,84.69
2019-05-10T01:02:22.297Z,85.23
2019-05-10T01:04:52.087Z,84.56
2019-05-10T01:07:22.419Z,84.56
2019-05-10T01:09:52.344Z,85.20
2019-05-10T01:12:22.289Z,85.63
2019-05-10T01:14:52.315Z,84.86
2019-05-10T01:17:22.087Z,84.86
2019-05-10T01:19:52.331Z,84.53
2019-05-10T01:22:22.153Z,84.25
2019-05-10T01:24:51.977Z,84.48
2019-05-10T01:27:22.115Z,84.49
2019-05-10T01:29:51.864Z,84.49
2019-05-10T01:32:21.618Z,83.98
2019-05-10T01:34:51.261Z,83.72
2019-05-10T01:37:20.855Z,83.88
2019-05-10T01:39:50.960Z,83.55
2019-05-10T01:42:21.079Z,83.87
2019-05-10T01:44:50.942Z,84.32
2019-05-10T01:47:21.123Z,83.95
2019-05-10T01:49:50.846Z,83.95
2019-05-10T01:52:20.768Z,84.54
2019-05-10T01:54:50.913Z,83.98
2019-05-10T01:57:20.738Z,84.39
2019-05-10T01:59:51.147Z,84.39
2019-05-10T02:02:21.264Z,83.65
2019-05-10T02:04:51.141Z,83.75
2019-05-10T02:07:21.005Z,84.20
2019-05-10T02:09:50.931Z,83.78
2019-05-10T02:12:20.662Z,83.90
2019-05-10T02:14:50.839Z,83.95
2019-05-10T02:17:21.080Z,83.70
2019-05-10T02:19:50.800Z,83.89
2019-05-10T02:22:20.454Z,83.84
2019-05-10T02:24:50.199Z,83.84
2019-05-10T02:27:20.110Z,83.83
2019-05-10T02:29:50.169Z,83.26
2019-05-10T02:32:19.814Z,83.93
2019-05-10T02:34:49.531Z,83.86
2019-05-10T02:37:19.515Z,83.86
2019-05-10T02:39:49.311Z,83.70
2019-05-10T02:42:19.247Z,84.00
2019-05-10T02:44:48.914Z,84.00
2019-05-10T02:47:18.834Z,83.63
2019-05-10T02:49:48.630Z,83.68
2019-05-10T02:52:18.263Z,83.74
2019-05-10T02:54:47.991Z,83.74
2019-05-10T02:57:18.195Z,83.52
2019-05-10T02:59:48.235Z,83.49
2019-05-10T03:02:18.117Z,83.81
2019-05-10T03:04:48.196Z,83.97
2019-05-10T03:07:18.959Z,84.06
2019-05-10T03:09:50.285Z,84.06
2019-05-10T03:12:25.347Z,84.17
2019-05-10T03:14:56.126Z,84.17
2019-05-10T03:17:26.275Z,83.66
2019-05-10T03:19:57.972Z,84.15
2019-05-10T03:22:28.126Z,83.26
2019-05-10T03:24:58.519Z,83.91
2019-05-10T03:27:28.490Z,83.58
2019-05-10T03:29:58.461Z,83.58
2019-05-10T03:32:28.341Z,83.56
2019-05-10T03:34:58.412Z,83.47
2019-05-10T03:37:28.179Z,83.52
2019-05-10T03:39:58.137Z,83.26
2019-05-10T03:42:27.944Z,83.26
2019-05-10T03:44:57.602Z,83.67
2019-05-10T03:47:27.403Z,83.91
2019-05-10T03:49:57.480Z,83.91
2019-05-10T03:52:27.214Z,83.85
2019-05-10T03:54:57.033Z,83.85
2019-05-10T03:57:26.810Z,83.95
2019-05-10T03:59:56.840Z,84.43
2019-05-10T04:02:26.651Z,84.37
2019-05-10T04:04:56.302Z,84.37
2019-05-10T04:07:26.028Z,84.81
2019-05-10T04:09:55.876Z,84.81
2019-05-10T04:12:26.204Z,84.88
2019-05-10T04:14:55.909Z,85.51
2019-05-10T04:17:25.848Z,85.07
2019-05-10T04:19:55.740Z,85.07
2019-05-10T04:22:25.650Z,85.67
2019-05-10T04:24:55.452Z,85.29
2019-05-10T04:27:32.529Z,86.02
2019-05-10T04:29:58.075Z,86.08
2019-05-10T04:32:27.742Z,86.08
2019-05-10T04:34:57.732Z,86.63
2019-05-10T04:37:27.433Z,86.58
2019-05-10T04:39:57.244Z,86.44
2019-05-10T04:42:26.888Z,86.97
2019-05-10T04:44:56.852Z,86.91
2019-05-10T04:47:26.557Z,86.91
2019-05-10T04:49:56.498Z,87.47
2019-05-10T04:52:26.754Z,87.30
2019-05-10T04:54:56.509Z,88.17
2019-05-10T04:57:26.274Z,87.26
2019-05-10T04:59:55.954Z,87.62
2019-05-10T05:02:25.650Z,87.80
2019-05-10T05:04:55.411Z,88.22
2019-05-10T05:07:25.128Z,88.22
2019-05-10T05:09:56.137Z,88.08
2019-05-10T05:12:25.898Z,87.57
2019-05-10T05:14:55.864Z,87.57
2019-05-10T05:17:25.653Z,88.40
2019-05-10T05:19:55.727Z,88.27
2019-05-10T05:22:27.023Z,87.67
2019-05-10T05:25:01.326Z,88.26
2019-05-10T05:27:28.699Z,88.53
2019-05-10T05:29:58.435Z,88.70
2019-05-10T05:32:28.673Z,88.58
2019-05-10T05:34:58.406Z,88.35
2019-05-10T05:37:27.983Z,88.35
2019-05-10T05:39:58.438Z,88.15
2019-05-10T05:42:29.531Z,89.01
2019-05-10T05:44:59.526Z,88.82
2019-05-10T05:47:29.379Z,88.48
2019-05-10T05:49:59.409Z,88.48
2019-05-10T05:52:28.989Z,87.97
2019-05-10T05:54:59.325Z,87.98
2019-05-10T05:57:29.658Z,88.42
2019-05-10T06:00:04.156Z,88.54
2019-05-10T06:02:31.398Z,88.46
2019-05-10T06:05:01.179Z,88.46
2019-05-10T06:07:37.912Z,88.91
2019-05-10T06:10:10.290Z,88.71
2019-05-10T06:12:35.986Z,88.71
2019-05-10T06:15:05.647Z,88.24
2019-05-10T06:17:35.795Z,88.58
2019-05-10T06:20:07.513Z,88.03
2019-05-10T06:22:43.692Z,88.03
2019-05-10T06:25:10.041Z,87.96
2019-05-10T06:27:40.908Z,87.95
2019-05-10T06:30:10.866Z,87.86
2019-05-10T06:32:40.925Z,87.61
2019-05-10T06:35:14.257Z,87.85
2019-05-10T06:37:41.775Z,88.68
2019-05-10T06:40:11.714Z,88.23
2019-05-10T06:42:41.439Z,87.15
2019-05-10T06:45:14.689Z,87.41
2019-05-10T06:47:47.837Z,87.70
2019-05-10T06:50:14.397Z,88.09
2019-05-10T06:52:44.352Z,87.50
2019-05-10T06:55:14.451Z,87.50
2019-05-10T06:57:44.135Z,88.07
2019-05-10T07:00:14.636Z,87.53
2019-05-10T07:02:44.465Z,88.36
2019-05-10T07:05:14.184Z,88.12
2019-05-10T07:07:45.516Z,88.34
2019-05-10T07:10:18.942Z,87.94
2019-05-10T07:12:47.215Z,87.58
2019-05-10T07:15:17.074Z,88.10
2019-05-10T07:17:47.371Z,87.88
2019-05-10T07:20:17.112Z,87.88
2019-05-10T07:22:46.651Z,87.55
2019-05-10T07:25:19.250Z,87.55
2019-05-10T07:27:50.385Z,87.48
2019-05-10T07:30:32.750Z,87.48
2019-05-10T07:33:02.426Z,86.39
2019-05-10T07:35:36.655Z,85.59
2019-05-10T07:38:12.768Z,85.40
2019-05-10T07:40:42.936Z,85.40
2019-05-10T07:43:24.699Z,86.37
2019-05-10T07:45:44.382Z,86.67
2019-05-10T07:48:14.194Z,86.79
2019-05-10T07:50:49.168Z,87.17
2019-05-10T07:53:16.251Z,85.67
2019-05-10T07:55:46.768Z,84.77
2019-05-10T07:58:16.893Z,85.92
2019-05-10T08:00:46.731Z,85.92
2019-05-10T08:03:22.780Z,84.59
2019-05-10T08:05:55.021Z,85.68
2019-05-10T08:08:19.700Z,85.89
2019-05-10T08:10:49.318Z,85.63
2019-05-10T08:13:21.212Z,85.63
2019-05-10T08:15:50.320Z,84.98
2019-05-10T08:18:25.176Z,83.44
2019-05-10T08:20:56.792Z,84.54
2019-05-10T08:23:27.817Z,84.54
2019-05-10T08:25:54.836Z,85.30
2019-05-10T08:28:28.078Z,84.59
2019-05-10T08:30:58.840Z,84.59
2019-05-10T08:33:27.378Z,83.15
2019-05-10T08:36:00.456Z,83.40
2019-05-10T08:38:28.469Z,83.96
2019-05-10T08:40:58.444Z,83.32
2019-05-10T08:43:30.712Z,83.23
2019-05-10T08:46:02.617Z,83.23
2019-05-10T08:48:33.088Z,82.94
2019-05-10T08:51:06.344Z,82.94
2019-05-10T08:53:34.724Z,82.86
2019-05-10T08:56:07.529Z,80.81
2019-05-10T08:58:37.256Z,82.47
2019-05-10T09:01:20.072Z,82.15
2019-05-10T09:03:41.771Z,80.20
2019-05-10T09:06:16.446Z,80.20
2019-05-10T09:08:43.145Z,80.60
2019-05-10T09:11:13.221Z,80.60
2019-05-10T09:13:46.165Z,79.18
2019-05-10T09:16:14.755Z,79.99
2019-05-10T09:18:50.297Z,80.21
2019-05-10T09:21:15.835Z,79.68
2019-05-10T09:23:52.971Z,79.64
2019-05-10T09:26:17.351Z,79.44
2019-05-10T09:28:47.612Z,80.33
2019-05-10T09:31:21.992Z,80.33
2019-05-10T09:33:53.694Z,78.37
2019-05-10T09:36:30.811Z,78.37
2019-05-10T09:38:53.879Z,79.22
2019-05-10T09:41:27.587Z,78.41
2019-05-10T09:43:56.583Z,78.59
2019-05-10T09:46:26.607Z,78.59
2019-05-10T09:49:06.161Z,76.98
2019-05-10T09:51:30.979Z,77.13
2019-05-10T09:54:00.612Z,77.13
2019-05-10T09:56:33.029Z,75.04
2019-05-10T09:59:01.438Z,73.28
2019-05-10T10:01:31.202Z,73.28
2019-05-10T10:04:02.704Z,71.57
2019-05-10T10:06:32.319Z,71.57
2019-05-10T10:09:02.115Z,71.90
2019-05-10T10:11:31.679Z,72.16
2019-05-10T10:14:02.378Z,71.48
2019-05-10T10:16:32.025Z,71.48
2019-05-10T10:19:01.574Z,73.63
2019-05-10T10:21:35.272Z,77.01
2019-05-10T10:24:12.629Z,77.08
2019-05-10T10:26:37.463Z,78.50
2019-05-10T10:29:12.447Z,78.50
2019-05-10T10:31:51.368Z,78.43
2019-05-10T10:34:13.708Z,78.43
2019-05-10T10:36:44.157Z,78.88
2019-05-10T10:39:17.043Z,78.72
2019-05-10T10:41:48.173Z,80.25
2019-05-10T10:44:23.221Z,79.99
2019-05-10T10:46:53.002Z,79.99
2019-05-10T10:49:23.072Z,79.51
2019-05-10T10:51:54.305Z,79.33
2019-05-10T10:54:28.638Z,79.49
2019-05-10T10:56:59.347Z,79.75
2019-05-10T10:59:26.548Z,79.75
2019-05-10T11:02:25.205Z,79.97
2019-05-10T11:04:27.988Z,79.84
2019-05-10T11:07:09.840Z,78.48
2019-05-10T11:09:31.139Z,78.48
2019-05-10T11:12:01.019Z,77.90
2019-05-10T11:14:39.371Z,77.90
2019-05-10T11:17:05.571Z,77.24
2019-05-10T11:19:35.332Z,76.52
2019-05-10T11:22:09.745Z,74.94
2019-05-10T11:24:43.705Z,74.94
2019-05-10T11:27:13.145Z,75.00
2019-05-10T11:29:41.926Z,75.00
2019-05-10T11:32:16.404Z,75.76
2019-05-10T11:34:42.715Z,73.77
2019-05-10T11:37:12.280Z,74.45
2019-05-10T11:39:46.915Z,72.21
2019-05-10T11:42:15.479Z,73.31
2019-05-10T11:44:50.289Z,72.47
2019-05-10T11:47:23.952Z,74.36
2019-05-10T11:49:47.225Z,73.83
2019-05-10T11:52:16.995Z,73.86
2019-05-10T11:54:46.964Z,73.86
2019-05-10T11:57:16.740Z,73.30
2019-05-10T11:59:47.746Z,72.64
2019-05-10T12:02:37.120Z,72.64
2019-05-10T12:04:52.414Z,71.95
2019-05-10T12:07:24.551Z,73.02
2019-05-10T12:10:03.098Z,71.90
2019-05-10T12:12:29.626Z,71.90
2019-05-10T12:14:55.500Z,72.74
2019-05-10T12:17:25.205Z,74.15
2019-05-10T12:19:56.545Z,74.15
2019-05-10T12:22:31.974Z,75.36
2019-05-10T12:25:19.776Z,74.25
2019-05-10T12:27:43.742Z,74.16
2019-05-10T12:30:03.452Z,73.10
2019-05-10T12:32:36.985Z,73.01
2019-05-10T12:35:05.138Z,73.01
2019-05-10T12:37:34.698Z,75.01
2019-05-10T12:40:09.808Z,73.09
2019-05-10T12:42:36.784Z,73.36
2019-05-10T12:45:06.649Z,73.36
2019-05-10T12:47:41.464Z,70.65
2019-05-10T12:50:10.313Z,72.50
2019-05-10T12:52:42.996Z,72.50
2019-05-10T12:55:11.424Z,72.85
2019-05-10T12:57:43.582Z,72.85
2019-05-10T13:00:15.732Z,72.47
2019-05-10T13:02:50.885Z,70.71
2019-05-10T13:05:17.278Z,70.71
2019-05-10T13:10:24.147Z,71.01
2019-05-10T13:12:54.034Z,66.64
2019-05-10T13:15:31.200Z,66.72
2019-05-10T13:17:56.423Z,66.72
2019-05-10T13:20:30.730Z,66.49
2019-05-10T13:22:57.657Z,66.49
2019-05-10T13:25:27.465Z,63.98
2019-05-10T13:27:57.493Z,67.34
2019-05-10T13:30:28.027Z,68.15
2019-05-10T13:33:00.219Z,68.15
2019-05-10T13:35:29.514Z,66.40
2019-05-10T13:38:04.043Z,67.81
2019-05-10T13:40:30.951Z,67.06
2019-05-10T13:43:00.462Z,65.08
2019-05-10T13:45:31.802Z,65.08
2019-05-10T13:48:01.822Z,64.92
2019-05-10T13:50:33.530Z,64.92
2019-05-10T13:53:03.288Z,60.24
2019-05-10T13:55:32.908Z,61.23
2019-05-10T13:58:02.482Z,62.29
2019-05-10T14:00:33.995Z,59.60
2019-05-10T14:03:05.004Z,64.25
2019-05-10T14:05:40.150Z,63.70
2019-05-10T14:08:09.714Z,63.70
2019-05-10T14:10:40.139Z,62.10
2019-05-10T14:13:16.480Z,59.46
2019-05-10T14:15:43.972Z,59.46
2019-05-10T14:18:13.718Z,56.50
2019-05-10T14:20:43.638Z,57.85
2019-05-10T14:23:17.806Z,55.83
2019-05-10T14:25:48.655Z,59.04
2019-05-10T14:28:24.950Z,59.04
2019-05-10T14:30:57.421Z,57.21
2019-05-10T14:33:26.541Z,54.90
2019-05-10T14:36:00.867Z,53.71
2019-05-10T14:38:27.278Z,52.89
2019-05-10T14:40:57.095Z,51.36
2019-05-10T14:43:29.473Z,51.36
2019-05-10T14:46:00.158Z,53.65
2019-05-10T14:48:30.806Z,52.39
2019-05-10T14:51:10.566Z,53.11
2019-05-10T14:53:34.446Z,53.11
2019-05-10T14:56:08.131Z,50.74
2019-05-10T14:58:35.901Z,50.87
2019-05-10T15:01:05.510Z,49.93
2019-05-10T15:03:44.416Z,49.93
2019-05-10T15:06:06.252Z,52.16
2019-05-10T15:08:35.765Z,49.41
2019-05-10T15:11:05.417Z,49.41
2019-05-10T15:13:35.582Z,51.62
2019-05-10T15:16:12.635Z,52.08
2019-05-10T15:18:40.131Z,52.58
2019-05-10T15:21:10.320Z,52.77
2019-05-10T15:23:40.130Z,50.81
2019-05-10T15:26:12.230Z,50.81
2019-05-10T15:28:43.535Z,52.79
2019-05-10T15:31:13.025Z,52.79
2019-05-10T15:33:46.089Z,53.44
2019-05-10T15:36:15.782Z,53.44
2019-05-10T15:38:51.954Z,52.49
2019-05-10T15:41:22.265Z,53.82
2019-05-10T15:43:53.406Z,52.59
2019-05-10T15:46:23.528Z,52.42
2019-05-10T15:48:57.553Z,52.05
2019-05-10T15:51:36.244Z,52.12
2019-05-10T15:54:17.664Z,50.93
2019-05-10T15:56:47.395Z,51.72
2019-05-10T15:59:19.249Z,49.60
2019-05-10T16:01:51.210Z,48.25
2019-05-10T16:04:21.520Z,48.33
2019-05-10T16:06:51.120Z,48.33
2019-05-10T16:09:20.864Z,49.93
2019-05-10T16:11:55.813Z,49.93
2019-05-10T16:14:24.154Z,48.14
2019-05-10T16:16:53.846Z,48.19
2019-05-10T16:19:23.802Z,48.19
2019-05-10T16:21:54.663Z,48.49
2019-05-10T16:24:26.498Z,50.67
2019-05-10T16:27:00.293Z,52.03
2019-05-10T16:29:33.635Z,50.96
2019-05-10T16:32:00.983Z,51.20
2019-05-10T16:34:32.266Z,53.41
2019-05-10T16:37:06.487Z,53.41
2019-05-10T16:39:36.365Z,54.30
2019-05-10T16:42:07.752Z,55.21
2019-05-10T16:44:37.655Z,55.97
2019-05-10T16:47:07.432Z,55.97
2019-05-10T16:49:37.132Z,56.76
2019-05-10T16:52:06.745Z,56.68
2019-05-10T16:54:36.964Z,57.43
2019-05-10T16:57:06.684Z,58.01
2019-05-10T16:59:39.420Z,58.01
2019-05-10T17:02:12.201Z,58.40
2019-05-10T17:04:47.244Z,57.93
2019-05-10T17:07:20.608Z,58.78
2019-05-10T17:09:54.127Z,58.78
2019-05-10T17:12:22.148Z,59.46
2019-05-10T17:14:56.308Z,61.10
2019-05-10T17:17:23.960Z,62.75
2019-05-10T17:19:53.993Z,65.72
2019-05-10T17:22:23.974Z,73.42
2019-05-10T17:24:56.913Z,73.42
2019-05-10T17:27:27.769Z,77.56
2019-05-10T17:29:57.279Z,77.56
2019-05-10T17:32:27.071Z,75.31
2019-05-10T17:34:59.178Z,76.41
2019-05-10T17:37:35.833Z,75.48
2019-05-10T17:40:10.067Z,75.68
2019-05-10T17:42:41.145Z,75.68
2019-05-10T17:45:08.752Z,76.22
2019-05-10T17:47:38.502Z,77.87
2019-05-10T17:50:08.973Z,77.87
2019-05-10T17:52:38.569Z,75.96
2019-05-10T17:55:15.999Z,75.96
2019-05-10T17:57:41.163Z,77.50
2019-05-10T18:00:10.855Z,77.84
2019-05-10T18:02:40.422Z,78.93
2019-05-10T18:05:11.513Z,79.40
2019-05-10T18:07:41.516Z,78.60
2019-05-10T18:10:12.224Z,79.09
2019-05-10T18:12:57.381Z,78.78
2019-05-10T18:15:27.742Z,78.78
2019-05-10T18:17:57.466Z,78.29
2019-05-10T18:20:29.147Z,78.29
2019-05-10T18:22:59.828Z,80.04
2019-05-10T18:25:30.180Z,79.89
2019-05-10T18:28:00.321Z,79.96
2019-05-10T18:30:30.382Z,79.96
2019-05-10T18:33:06.539Z,79.92
2019-05-10T18:35:40.146Z,80.82
2019-05-10T18:38:13.742Z,79.97
2019-05-10T18:40:43.298Z,79.69
2019-05-10T18:43:13.176Z,79.69
2019-05-10T18:45:50.743Z,78.96
2019-05-10T18:48:20.246Z,80.01
2019-05-10T18:50:51.434Z,80.01
2019-05-10T18:53:22.951Z,80.76
2019-05-10T18:55:52.868Z,80.76
2019-05-10T18:58:29.411Z,81.43
2019-05-10T19:00:56.128Z,82.12
2019-05-10T19:03:27.952Z,82.35
2019-05-10T19:05:56.512Z,81.83
2019-05-10T19:08:26.026Z,82.16
2019-05-10T19:10:56.052Z,80.90
2019-05-10T19:13:27.468Z,81.88
2019-05-10T19:15:58.815Z,82.07
2019-05-10T19:18:29.253Z,82.07
2019-05-10T19:21:01.998Z,82.62
2019-05-10T19:23:31.532Z,82.47
2019-05-10T19:26:01.027Z,83.35
2019-05-10T19:28:30.585Z,82.64
2019-05-10T19:31:00.616Z,84.05
2019-05-10T19:33:36.624Z,82.74
2019-05-10T19:36:13.065Z,82.74
2019-05-10T19:38:40.064Z,82.88
2019-05-10T19:41:10.835Z,82.35
2019-05-10T19:43:41.159Z,83.17
2019-05-10T19:46:11.636Z,82.14
2019-05-10T19:48:44.147Z,82.59
2019-05-10T19:51:14.038Z,82.59
2019-05-10T19:53:44.094Z,83.17
2019-05-10T19:56:13.789Z,81.73
2019-05-10T19:58:48.918Z,81.23
2019-05-10T20:01:20.770Z,80.27
2019-05-10T20:03:51.389Z,80.27
2019-05-10T20:06:21.125Z,82.35
2019-05-10T20:08:51.095Z,82.61
2019-05-10T20:11:21.436Z,82.17
2019-05-10T20:13:51.256Z,82.55
2019-05-10T20:16:22.268Z,82.55
2019-05-10T20:18:52.222Z,80.66
2019-05-10T20:21:22.290Z,79.94
2019-05-10T20:23:51.880Z,81.18
2019-05-10T20:26:22.021Z,81.92
2019-05-10T20:28:51.768Z,81.93
2019-05-10T20:31:21.965Z,81.93
2019-05-10T20:33:52.036Z,81.23
2019-05-10T20:36:22.921Z,81.84
2019-05-10T20:38:52.598Z,81.34
2019-05-10T20:41:25.692Z,81.52
2019-05-10T20:43:55.793Z,82.39
2019-05-10T20:46:25.849Z,82.39
2019-05-10T20:48:55.592Z,82.86
2019-05-10T20:51:30.631Z,82.76
2019-05-10T20:54:00.333Z,82.78
2019-05-10T20:56:30.396Z,82.65
2019-05-10T20:59:00.281Z,82.73
2019-05-10T21:01:31.076Z,82.73
2019-05-10T21:04:03.904Z,82.55
2019-05-10T21:06:33.854Z,82.77
2019-05-10T21:09:08.079Z,83.06
2019-05-10T21:11:37.711Z,84.07
2019-05-10T21:14:08.307Z,82.05
2019-05-10T21:16:39.123Z,82.17
2019-05-10T21:19:08.804Z,82.03
2019-05-10T21:21:41.654Z,83.36
2019-05-10T21:24:11.584Z,83.13
2019-05-10T21:26:41.385Z,82.37
2019-05-10T21:29:16.036Z,82.37
2019-05-10T21:31:46.160Z,82.55
2019-05-10T21:34:16.630Z,82.55
2019-05-10T21:36:49.364Z,82.66
2019-05-10T21:39:19.746Z,82.88
2019-05-10T21:41:50.153Z,83.62
2019-05-10T21:44:22.378Z,82.66
2019-05-10T21:46:53.709Z,82.67
2019-05-10T21:49:24.086Z,82.81
2019-05-10T21:51:54.152Z,82.28
2019-05-10T21:54:25.416Z,82.36
2019-05-10T21:56:56.660Z,82.48
2019-05-10T21:59:26.511Z,82.48
2019-05-10T22:01:56.218Z,82.46
2019-05-10T22:04:28.114Z,82.80
2019-05-10T22:06:57.902Z,82.70
2019-05-10T22:09:27.917Z,79.06
2019-05-10T22:11:59.680Z,79.06
2019-05-10T22:14:29.159Z,80.53
2019-05-10T22:16:59.070Z,79.86
2019-05-10T22:19:28.934Z,79.86
2019-05-10T22:21:58.692Z,79.64
2019-05-10T22:24:28.541Z,78.79
2019-05-10T22:27:02.209Z,78.42
2019-05-10T22:29:32.649Z,80.13
2019-05-10T22:32:03.147Z,78.84
2019-05-10T22:34:33.001Z,78.93
2019-05-10T22:37:02.743Z,79.09
2019-05-10T22:39:33.012Z,78.46
2019-05-10T22:42:11.803Z,78.51
2019-05-10T22:44:41.473Z,78.00
2019-05-10T22:47:11.694Z,78.00
2019-05-10T22:49:42.097Z,79.33
2019-05-10T22:52:11.946Z,80.41
2019-05-10T22:54:42.012Z,80.41
2019-05-10T22:57:11.656Z,81.27
2019-05-10T22:59:42.040Z,81.31
2019-05-10T23:02:12.115Z,81.49
2019-05-10T23:04:42.084Z,81.80
2019-05-10T23:07:11.882Z,81.80
2019-05-10T23:09:41.637Z,82.24
2019-05-10T23:12:11.303Z,82.24
2019-05-10T23:14:41.513Z,81.85
2019-05-10T23:17:11.474Z,81.61
2019-05-10T23:19:41.379Z,81.03
2019-05-10T23:22:11.420Z,81.03
2019-05-10T23:24:41.350Z,80.12
2019-05-10T23:27:11.339Z,80.31
2019-05-10T23:29:41.267Z,80.32
2019-05-10T23:32:10.971Z,79.19
2019-05-10T23:34:40.664Z,78.71
2019-05-10T23:37:11.009Z,78.92
2019-05-10T23:39:41.542Z,78.92
2019-05-10T23:42:11.909Z,76.59
2019-05-10T23:44:41.754Z,79.38
2019-05-10T23:47:11.942Z,78.63
2019-05-10T23:49:42.270Z,77.97
2019-05-10T23:52:12.137Z,77.91
2019-05-10T23:54:42.170Z,76.27
2019-05-10T23:57:12.117Z,76.27
2019-05-10T23:59:41.857Z,76.88
